Time;durP1;ratioP1;P1;durP2;ratioP2;P2;SDS_P1;SDS_P2;PMS_P1;PMS_P2;Temp;Humidity;BMP_temperature;BMP_pressure;BME280_temperature;BME280_humidity;BME280_pressure;Samples;Min_cycle;Max_cycle;Signal;HPM_P1;HPM_P2
2021/01/21 00:01:27;;;;;;;1.58;0.70;;;;;15.60;98477.00;;;;4996952;28;20264;-80
2021/01/21 00:03:53;;;;;;;1.00;0.73;;;;;15.60;98478.00;;;;5003951;28;20205;-80
2021/01/21 00:06:20;;;;;;;1.38;0.70;;;;;15.60;98478.00;;;;5007261;28;20193;-80
2021/01/21 00:08:47;;;;;;;2.47;0.80;;;;;15.70;98476.00;;;;4991495;28;20197;-80
2021/01/21 00:11:13;;;;;;;1.38;0.70;;;;;15.70;98478.00;;;;4991907;28;20284;-80
2021/01/21 00:13:41;;;;;;;1.35;0.50;;;;;15.70;98477.00;;;;4995095;28;20247;-80
2021/01/21 00:16:08;;;;;;;1.50;0.75;;;;;15.70;98468.00;;;;5008787;28;20200;-80
2021/01/21 00:18:34;;;;;;;1.92;0.88;;;;;15.70;98455.00;;;;4990531;28;20649;-79
2021/01/21 00:21:01;;;;;;;1.15;0.60;;;;;15.70;98441.00;;;;4989998;28;20205;-79
2021/01/21 00:23:30;;;;;;;1.35;0.80;;;;;15.70;98435.00;;;;5007064;28;20201;-80
2021/01/21 00:47:03;;;;;;;2.42;0.75;;;;;15.60;98344.00;;;;4992967;28;20372;-79
2021/01/21 00:49:30;;;;;;;1.95;0.70;;;;;15.80;98331.00;;;;5008079;28;20197;-79
2021/01/21 00:51:57;;;;;;;0.63;0.47;;;;;15.80;98330.00;;;;5005079;28;20200;-78
2021/01/21 00:54:24;;;;;;;1.63;0.85;;;;;15.90;98314.00;;;;5007407;28;20228;-79
2021/01/21 00:56:50;;;;;;;1.35;0.63;;;;;15.90;98304.00;;;;5008535;28;20197;-80
2021/01/21 00:59:17;;;;;;;1.77;0.52;;;;;15.90;98295.00;;;;5008046;28;20259;-80
2021/01/21 01:01:44;;;;;;;2.50;0.60;;;;;15.90;98283.00;;;;5006757;28;20212;-79
2021/01/21 01:04:11;;;;;;;1.10;0.60;;;;;16.00;98284.00;;;;5002422;28;20197;-79
2021/01/21 01:06:38;;;;;;;0.55;0.35;;;;;16.00;98270.00;;;;5008608;28;20200;-80
2021/01/21 01:09:05;;;;;;;0.77;0.57;;;;;16.00;98258.00;;;;5006829;28;20208;-78
2021/01/21 01:11:32;;;;;;;0.70;0.40;;;;;16.00;98257.00;;;;5004961;28;20213;-80
2021/01/21 01:13:58;;;;;;;2.15;0.50;;;;;16.00;98245.00;;;;5005742;28;20200;-79
2021/01/21 01:16:25;;;;;;;1.33;0.60;;;;;16.00;98237.00;;;;5008093;28;20209;-80
2021/01/21 01:18:52;;;;;;;2.00;0.70;;;;;16.00;98253.00;;;;4998832;28;20233;-79
2021/01/21 01:21:19;;;;;;;1.75;0.60;;;;;16.00;98236.00;;;;4988721;28;20209;-79
2021/01/21 01:23:46;;;;;;;1.85;0.50;;;;;16.00;98222.00;;;;5001930;28;20201;-79
2021/01/21 01:26:13;;;;;;;0.95;0.47;;;;;16.10;98231.00;;;;4999361;28;20197;-79
2021/01/21 01:28:42;;;;;;;3.70;0.50;;;;;16.10;98225.00;;;;5007550;28;21052;-78
2021/01/21 01:31:09;;;;;;;0.80;0.50;;;;;16.10;98225.00;;;;5005638;28;20319;-79
2021/01/21 01:33:36;;;;;;;1.73;0.43;;;;;16.10;98214.00;;;;4990025;28;20201;-80
2021/01/21 01:36:03;;;;;;;1.30;0.68;;;;;16.10;98209.00;;;;4999010;28;20189;-79
2021/01/21 01:38:30;;;;;;;1.55;0.82;;;;;16.10;98209.00;;;;5008719;28;20220;-79
2021/01/21 01:40:58;;;;;;;1.88;0.70;;;;;16.10;98197.00;;;;5003632;28;20247;-80
2021/01/21 01:43:24;;;;;;;2.38;0.73;;;;;16.10;98211.00;;;;5001010;28;20621;-84
2021/01/21 01:45:51;;;;;;;1.20;0.65;;;;;16.10;98200.00;;;;4990810;28;20530;-83
2021/01/21 01:48:18;;;;;;;0.93;0.47;;;;;16.10;98184.00;;;;4994186;28;20660;-83
2021/01/21 01:50:45;;;;;;;0.73;0.57;;;;;16.10;98185.00;;;;5002534;28;20714;-83
2021/01/21 01:53:13;;;;;;;1.52;0.68;;;;;16.10;98178.00;;;;5008173;28;20201;-80
2021/01/21 01:55:40;;;;;;;2.42;0.80;;;;;16.10;98184.00;;;;5005758;28;20586;-81
2021/01/21 01:58:09;;;;;;;0.98;0.60;;;;;16.10;98180.00;;;;5006860;28;20749;-80
2021/01/21 02:00:37;;;;;;;1.88;0.80;;;;;16.10;98157.00;;;;5006177;28;20232;-81
2021/01/21 02:03:04;;;;;;;1.52;0.40;;;;;16.20;98137.00;;;;5007752;28;20204;-80
2021/01/21 02:05:31;;;;;;;1.00;0.60;;;;;16.20;98156.00;;;;5007724;28;20636;-83
2021/01/21 02:07:58;;;;;;;3.60;0.65;;;;;16.20;98152.00;;;;5005667;28;20204;-82
2021/01/21 02:10:25;;;;;;;0.90;0.70;;;;;16.20;98152.00;;;;4993895;28;20210;-81
2021/01/21 02:13:30;;;;;;;1.73;0.70;;;;;16.20;98154.00;;;;5008024;28;20561;-83
2021/01/21 02:16:08;;;;;;;1.70;0.75;;;;;16.20;98157.00;;;;5005481;28;20200;-81
2021/01/21 02:18:41;;;;;;;0.75;0.47;;;;;16.20;98128.00;;;;5006730;28;20221;-83
2021/01/21 02:21:30;;;;;;;0.60;0.38;;;;;16.20;98127.00;;;;5006536;28;20201;-82
2021/01/21 02:24:26;;;;;;;1.65;0.65;;;;;16.20;98121.00;;;;5007172;28;20710;-81
2021/01/21 02:26:55;;;;;;;1.65;0.80;;;;;16.20;98127.00;;;;5011978;28;20201;-82
2021/01/21 02:29:25;;;;;;;0.80;0.45;;;;;16.20;98102.00;;;;5000161;28;20205;-79
2021/01/21 02:32:31;;;;;;;0.75;0.30;;;;;16.10;98114.00;;;;5005839;28;20258;-81
2021/01/21 02:35:04;;;;;;;0.82;0.52;;;;;16.20;98111.00;;;;4995273;28;20200;-83
2021/01/21 02:37:31;;;;;;;2.45;0.57;;;;;16.30;98120.00;;;;5002761;28;20742;-81
2021/01/21 02:40:00;;;;;;;0.82;0.50;;;;;16.30;98105.00;;;;5004409;28;20209;-80
2021/01/21 02:42:28;;;;;;;1.52;0.75;;;;;16.30;98103.00;;;;5001376;28;20196;-79
2021/01/21 02:44:54;;;;;;;0.90;0.35;;;;;16.30;98098.00;;;;5005465;28;20213;-81
2021/01/21 02:47:23;;;;;;;3.08;1.10;;;;;16.30;98096.00;;;;4992398;28;20210;-81
2021/01/21 02:49:51;;;;;;;1.38;0.70;;;;;16.40;98085.00;;;;5003515;28;20224;-82
2021/01/21 02:52:23;;;;;;;1.25;0.80;;;;;16.40;98074.00;;;;5010553;28;20197;-79
2021/01/21 02:55:07;;;;;;;1.45;0.73;;;;;16.40;98097.00;;;;5010018;28;20298;-79
2021/01/21 02:57:39;;;;;;;2.30;0.80;;;;;16.40;98086.00;;;;5009906;28;20224;-79
2021/01/21 03:00:08;;;;;;;0.68;0.40;;;;;16.50;98110.00;;;;5001807;28;20236;-79
2021/01/21 03:02:38;;;;;;;2.00;0.60;;;;;16.50;98082.00;;;;5008775;28;20204;-80
2021/01/21 03:05:06;;;;;;;0.93;0.40;;;;;16.50;98097.00;;;;5010687;28;20212;-81
2021/01/21 03:07:35;;;;;;;1.35;0.57;;;;;16.50;98058.00;;;;5003812;28;20202;-83
2021/01/21 03:10:03;;;;;;;0.85;0.55;;;;;16.50;98094.00;;;;5002778;28;20197;-84
2021/01/21 03:12:30;;;;;;;1.67;0.60;;;;;16.60;98082.00;;;;5011028;28;20213;-82
2021/01/21 03:14:57;;;;;;;1.83;0.80;;;;;16.50;98064.00;;;;5000485;28;21076;-79
2021/01/21 03:17:25;;;;;;;1.65;0.70;;;;;16.50;98069.00;;;;5011612;28;20221;-81
2021/01/21 03:19:53;;;;;;;1.50;0.45;;;;;16.50;98073.00;;;;5006923;28;20204;-82
2021/01/21 03:22:20;;;;;;;0.73;0.50;;;;;16.40;98040.00;;;;5002160;28;20205;-82
2021/01/21 03:24:48;;;;;;;0.95;0.45;;;;;16.40;98050.00;;;;5002166;28;20206;-83
2021/01/21 03:27:15;;;;;;;0.75;0.43;;;;;16.40;98040.00;;;;4996974;28;20546;-80
2021/01/21 03:29:41;;;;;;;1.27;0.52;;;;;16.30;98038.00;;;;5010618;28;20196;-82
2021/01/21 03:32:08;;;;;;;1.48;0.80;;;;;16.30;98030.00;;;;5008728;28;20189;-83
2021/01/21 03:34:35;;;;;;;0.65;0.50;;;;;16.30;98024.00;;;;5009029;28;20667;-82
2021/01/21 03:37:01;;;;;;;1.27;0.52;;;;;16.20;98037.00;;;;5010579;28;20190;-81
2021/01/21 03:39:28;;;;;;;0.60;0.40;;;;;16.20;97997.00;;;;5010684;28;20201;-82
2021/01/21 03:41:56;;;;;;;0.90;0.50;;;;;16.20;98009.00;;;;5006588;28;20201;-82
2021/01/21 03:44:22;;;;;;;1.50;0.73;;;;;16.10;98042.00;;;;5005262;28;20578;-82
2021/01/21 03:46:49;;;;;;;0.90;0.50;;;;;16.10;98031.00;;;;4997303;28;20193;-80
2021/01/21 03:49:16;;;;;;;0.85;0.50;;;;;16.10;98028.00;;;;5010875;28;20554;-82
2021/01/21 03:51:43;;;;;;;1.65;0.50;;;;;16.10;98028.00;;;;5008903;28;20204;-83
2021/01/21 03:54:09;;;;;;;1.50;0.68;;;;;16.10;98026.00;;;;5010681;28;20219;-82
2021/01/21 03:56:36;;;;;;;1.05;0.50;;;;;16.10;98246.00;;;;5006106;28;20236;-79
2021/01/21 03:59:04;;;;;;;1.33;0.40;;;;;15.80;98258.00;;;;5008639;28;20781;-81
2021/01/21 04:01:33;;;;;;;0.30;0.17;;;;;15.50;98253.00;;;;5009425;28;20254;-81
2021/01/21 04:04:00;;;;;;;0.68;0.00;;;;;15.20;98261.00;;;;4993257;28;20286;-81
2021/01/21 04:06:27;;;;;;;0.88;0.25;;;;;15.00;98269.00;;;;5000178;28;20201;-81
2021/01/21 04:08:54;;;;;;;0.05;0.00;;;;;14.60;98272.00;;;;5009958;28;20257;-82
2021/01/21 04:11:21;;;;;;;1.00;0.35;;;;;14.40;98287.00;;;;4999729;28;20209;-81
2021/01/21 04:13:48;;;;;;;0.00;0.00;;;;;14.10;98278.00;;;;5009540;28;20227;-81
2021/01/21 04:16:15;;;;;;;2.08;0.63;;;;;13.90;98301.00;;;;5007398;28;20240;-82
2021/01/21 04:18:42;;;;;;;1.33;0.17;;;;;13.70;98291.00;;;;5009728;28;20725;-80
2021/01/21 04:21:09;;;;;;;1.55;0.28;;;;;13.50;98296.00;;;;5009587;28;20197;-82
2021/01/21 04:23:36;;;;;;;0.80;0.57;;;;;13.30;98309.00;;;;5008815;28;20206;-82
2021/01/21 04:26:03;;;;;;;3.20;0.20;;;;;13.10;98311.00;;;;4990514;28;20209;-80
2021/01/21 04:28:29;;;;;;;2.72;0.30;;;;;12.90;98311.00;;;;4989628;28;20676;-77
2021/01/21 04:30:56;;;;;;;3.45;0.70;;;;;12.80;98344.00;;;;5007258;28;20189;-79
2021/01/21 04:33:24;;;;;;;1.13;0.20;;;;;12.60;98342.00;;;;5009883;28;20652;-79
2021/01/21 04:35:51;;;;;;;1.35;0.22;;;;;12.60;98354.00;;;;5003937;28;20220;-80
2021/01/21 04:38:18;;;;;;;1.35;0.43;;;;;12.50;98365.00;;;;5006428;28;20221;-80
2021/01/21 04:40:45;;;;;;;2.90;0.30;;;;;12.50;98369.00;;;;5009503;28;20201;-79
2021/01/21 04:43:12;;;;;;;0.90;0.20;;;;;12.40;98344.00;;;;5003152;28;20193;-78
2021/01/21 04:45:38;;;;;;;1.25;0.17;;;;;12.40;98322.00;;;;4998712;28;20201;-80
2021/01/21 04:48:07;;;;;;;1.80;0.28;;;;;12.30;98322.00;;;;5004552;28;20690;-80
2021/01/21 04:50:36;;;;;;;0.77;0.50;;;;;12.20;98284.00;;;;5005525;28;20212;-79
2021/01/21 04:53:06;;;;;;;0.82;0.30;;;;;12.20;98315.00;;;;5006622;28;20205;-80
2021/01/21 04:55:36;;;;;;;2.25;0.70;;;;;12.20;98352.00;;;;5008760;28;20284;-79
2021/01/21 04:58:10;;;;;;;4.13;0.60;;;;;12.10;98376.00;;;;4991030;28;20276;-80
2021/01/21 05:00:38;;;;;;;3.72;0.50;;;;;12.20;98370.00;;;;5004362;28;20655;-80
2021/01/21 05:03:05;;;;;;;4.05;0.40;;;;;12.20;98366.00;;;;5009978;28;20197;-81
2021/01/21 05:05:33;;;;;;;4.00;0.50;;;;;12.20;98370.00;;;;5012510;28;20200;-79
2021/01/21 05:08:01;;;;;;;3.00;0.50;;;;;12.20;98399.00;;;;5004836;28;20255;-80
2021/01/21 05:10:29;;;;;;;1.42;0.40;;;;;12.30;98401.00;;;;5008175;28;20659;-81
2021/01/21 05:12:56;;;;;;;2.58;0.52;;;;;12.30;98406.00;;;;4989583;28;20691;-81
2021/01/21 05:15:23;;;;;;;3.03;0.70;;;;;12.40;98426.00;;;;4990872;28;20200;-80
2021/01/21 05:17:50;;;;;;;1.13;0.57;;;;;12.40;98441.00;;;;5008521;28;20594;-80
2021/01/21 05:20:16;;;;;;;5.10;0.88;;;;;12.40;98434.00;;;;4999300;28;20236;-78
2021/01/21 05:22:43;;;;;;;5.53;0.88;;;;;12.40;98459.00;;;;5008956;28;20212;-79
2021/01/21 05:25:11;;;;;;;2.28;0.50;;;;;12.40;98467.00;;;;5009738;28;20197;-80
2021/01/21 05:27:39;;;;;;;2.75;0.90;;;;;12.40;98487.00;;;;5002226;28;20679;-78
2021/01/21 05:30:08;;;;;;;3.40;0.63;;;;;12.40;98477.00;;;;5000030;28;20255;-78
2021/01/21 05:32:37;;;;;;;4.38;0.50;;;;;12.40;98493.00;;;;5005264;28;20948;-82
2021/01/21 05:35:05;;;;;;;3.47;0.70;;;;;12.50;98492.00;;;;5004217;28;20423;-82
2021/01/21 05:37:38;;;;;;;2.05;0.40;;;;;12.40;98505.00;;;;5008625;28;20209;-80
2021/01/21 05:40:07;;;;;;;2.17;0.40;;;;;12.40;98516.00;;;;5001317;28;20672;-80
2021/01/21 05:42:37;;;;;;;1.30;0.28;;;;;12.40;98523.00;;;;5002227;28;20197;-80
2021/01/21 05:45:05;;;;;;;4.30;0.50;;;;;12.40;98521.00;;;;5007792;28;20944;-77
2021/01/21 05:47:32;;;;;;;3.30;0.50;;;;;12.40;98522.00;;;;5003274;28;20284;-79
2021/01/21 05:50:00;;;;;;;3.22;0.65;;;;;12.40;98525.00;;;;4990093;28;20714;-78
2021/01/21 05:52:27;;;;;;;3.00;0.80;;;;;12.30;98513.00;;;;5004974;28;20197;-82
2021/01/21 05:54:56;;;;;;;2.22;0.75;;;;;12.30;98538.00;;;;4995658;28;20213;-82
2021/01/21 05:57:23;;;;;;;3.22;0.85;;;;;12.30;98537.00;;;;5003260;28;20229;-81
2021/01/21 05:59:51;;;;;;;3.60;0.70;;;;;12.20;98554.00;;;;5009569;28;20224;-81
2021/01/21 06:02:19;;;;;;;4.10;0.65;;;;;12.20;98534.00;;;;5011387;28;20196;-80
2021/01/21 06:04:49;;;;;;;1.30;0.45;;;;;12.20;98563.00;;;;5010153;28;20954;-82
2021/01/21 06:07:22;;;;;;;3.75;0.60;;;;;12.10;98558.00;;;;5009835;28;20204;-82
2021/01/21 06:09:49;;;;;;;3.22;0.75;;;;;12.10;98575.00;;;;5008556;28;20220;-83
2021/01/21 06:12:16;;;;;;;1.23;0.30;;;;;12.10;98574.00;;;;5010280;28;20232;-80
2021/01/21 06:14:45;;;;;;;1.33;0.30;;;;;12.10;98581.00;;;;5005299;28;20698;-79
2021/01/21 06:17:13;;;;;;;2.95;0.35;;;;;12.10;98599.00;;;;5009078;28;20255;-80
2021/01/21 06:19:40;;;;;;;7.20;1.10;;;;;12.10;98591.00;;;;5010135;28;20231;-82
2021/01/21 06:22:10;;;;;;;3.63;0.60;;;;;12.10;98607.00;;;;5004294;28;20197;-82
2021/01/21 06:24:43;;;;;;;0.70;0.40;;;;;12.10;98619.00;;;;5011442;28;20205;-81
2021/01/21 06:27:14;;;;;;;4.05;0.70;;;;;12.10;98632.00;;;;5010552;28;20221;-80
2021/01/21 06:29:46;;;;;;;2.05;0.40;;;;;12.10;98635.00;;;;5010294;28;20200;-81
2021/01/21 06:32:17;;;;;;;3.60;0.80;;;;;12.10;98644.00;;;;5009707;28;20201;-89
2021/01/21 06:34:44;;;;;;;1.88;0.60;;;;;12.10;98642.00;;;;5000651;28;20230;-82
2021/01/21 06:37:15;;;;;;;2.83;0.40;;;;;12.00;98653.00;;;;4997102;28;20247;-82
2021/01/21 06:39:51;;;;;;;1.60;0.40;;;;;12.00;98656.00;;;;5011996;28;20224;-82
2021/01/21 06:42:22;;;;;;;2.42;0.45;;;;;12.00;98665.00;;;;4995193;28;20201;-82
2021/01/21 06:44:51;;;;;;;1.73;0.22;;;;;11.90;98681.00;;;;5014408;28;20272;-81
2021/01/21 06:47:19;;;;;;;2.45;0.32;;;;;11.90;98677.00;;;;4995440;28;20245;-83
2021/01/21 06:49:47;;;;;;;3.92;0.63;;;;;11.80;98669.00;;;;5000951;28;20300;-83
2021/01/21 06:52:14;;;;;;;5.15;0.82;;;;;11.80;98689.00;;;;5013869;28;20551;-84
2021/01/21 06:54:42;;;;;;;2.95;0.80;;;;;11.80;98695.00;;;;5013206;28;20201;-83
2021/01/21 06:57:51;;;;;;;5.75;0.35;;;;;11.70;98690.00;;;;5001244;28;20210;-83
2021/01/21 07:00:37;;;;;;;1.55;0.47;;;;;11.70;98706.00;;;;4997591;28;20217;-78
2021/01/21 07:03:05;;;;;;;5.40;0.40;;;;;11.70;98704.00;;;;4992438;28;20205;-80
2021/01/21 07:05:31;;;;;;;3.60;0.40;;;;;11.70;98713.00;;;;4991287;28;20206;-80
2021/01/21 07:08:04;;;;;;;3.95;0.50;;;;;11.60;98712.00;;;;5000686;28;20216;-80
2021/01/21 07:10:33;;;;;;;4.60;0.52;;;;;11.60;98715.00;;;;5006499;28;20643;-81
2021/01/21 07:13:03;;;;;;;2.97;0.35;;;;;11.60;98729.00;;;;5010499;28;20213;-85
2021/01/21 07:15:32;;;;;;;1.50;0.60;;;;;11.60;98734.00;;;;5013526;28;20208;-86
2021/01/21 07:18:11;;;;;;;3.28;0.70;;;;;11.50;98742.00;;;;5007913;28;20212;-82
2021/01/21 07:21:09;;;;;;;1.42;0.20;;;;;11.40;98739.00;;;;4991598;28;20663;-82
2021/01/21 07:23:39;;;;;;;4.70;0.65;;;;;11.40;98751.00;;;;5003420;28;20205;-81
2021/01/21 07:26:34;;;;;;;2.45;0.40;;;;;11.30;98751.00;;;;5010167;28;20197;-80
2021/01/21 07:29:06;;;;;;;0.85;0.25;;;;;11.40;98767.00;;;;4988266;28;20208;-81
2021/01/21 07:32:11;;;;;;;2.50;0.63;;;;;11.30;98758.00;;;;4990919;28;20240;-81
2021/01/21 07:34:51;;;;;;;2.78;0.65;;;;;11.40;98763.00;;;;4990976;28;20194;-81
2021/01/21 07:37:22;;;;;;;1.65;0.57;;;;;11.40;98775.00;;;;4991835;28;20189;-81
2021/01/21 07:40:02;;;;;;;2.30;0.45;;;;;11.30;98780.00;;;;5008362;28;20235;-81
2021/01/21 07:42:48;;;;;;;2.88;0.30;;;;;11.30;98786.00;;;;5006796;28;20667;-82
2021/01/21 07:45:26;;;;;;;0.88;0.50;;;;;11.30;98787.00;;;;4991360;28;20205;-82
2021/01/21 07:47:55;;;;;;;0.65;0.30;;;;;11.30;98795.00;;;;5008092;28;20562;-82
2021/01/21 07:50:32;;;;;;;3.50;0.43;;;;;11.20;98799.00;;;;5009597;28;20212;-81
2021/01/21 07:53:05;;;;;;;2.00;0.38;;;;;11.30;98797.00;;;;5008992;28;20631;-80
2021/01/21 07:55:34;;;;;;;1.67;0.60;;;;;11.30;98805.00;;;;5009098;28;20197;-81
2021/01/21 07:58:28;;;;;;;3.83;0.60;;;;;11.10;98807.00;;;;5008033;28;20231;-82
2021/01/21 08:00:56;;;;;;;6.65;0.50;;;;;11.20;98820.00;;;;5007139;28;20259;-82
2021/01/21 08:03:37;;;;;;;4.65;0.90;;;;;11.10;98812.00;;;;5002763;28;20202;-81
2021/01/21 08:06:11;;;;;;;1.98;0.73;;;;;11.20;98817.00;;;;5004443;28;20203;-81
2021/01/21 08:08:39;;;;;;;1.23;0.45;;;;;11.20;98821.00;;;;4990258;28;20560;-81
2021/01/21 08:11:07;;;;;;;3.50;0.52;;;;;11.20;98822.00;;;;5007792;28;20189;-82
2021/01/21 08:13:34;;;;;;;3.75;0.70;;;;;11.20;98829.00;;;;5008101;28;20682;-83
2021/01/21 08:16:02;;;;;;;5.63;0.70;;;;;11.20;98826.00;;;;5004694;28;20209;-82
2021/01/21 08:18:29;;;;;;;2.42;0.70;;;;;11.20;98826.00;;;;4996455;28;20695;-81
2021/01/21 08:20:55;;;;;;;5.20;0.95;;;;;11.20;98826.00;;;;5008945;28;20679;-82
2021/01/21 08:23:22;;;;;;;3.38;1.00;;;;;11.20;98829.00;;;;5002391;28;20252;-82
2021/01/21 08:25:53;;;;;;;1.80;0.50;;;;;11.20;98823.00;;;;5008336;28;20284;-82
2021/01/21 08:28:21;;;;;;;2.90;0.77;;;;;11.20;98826.00;;;;5009396;28;20196;-82
2021/01/21 08:30:49;;;;;;;4.55;0.93;;;;;11.20;98828.00;;;;4997408;28;20679;-82
2021/01/21 08:33:20;;;;;;;3.28;0.90;;;;;11.20;98831.00;;;;4999732;28;20296;-82
2021/01/21 08:35:51;;;;;;;2.72;0.63;;;;;11.20;98834.00;;;;5005477;28;20205;-82
2021/01/21 08:38:21;;;;;;;3.08;1.33;;;;;11.20;98829.00;;;;5007711;28;20221;-82
2021/01/21 08:40:49;;;;;;;1.17;0.30;;;;;11.20;98827.00;;;;4998352;28;20204;-82
2021/01/21 08:43:17;;;;;;;4.82;0.88;;;;;11.30;98841.00;;;;5007428;28;20201;-82
2021/01/21 08:45:44;;;;;;;1.30;0.40;;;;;11.30;98833.00;;;;4989801;28;20213;-82
2021/01/21 08:48:22;;;;;;;2.08;0.57;;;;;11.30;98838.00;;;;4994203;28;20201;-81
2021/01/21 08:50:49;;;;;;;3.20;0.73;;;;;11.30;98834.00;;;;5003914;28;20209;-83
2021/01/21 08:53:21;;;;;;;2.80;0.80;;;;;11.30;98846.00;;;;4991611;28;20204;-83
2021/01/21 08:55:51;;;;;;;4.25;1.25;;;;;11.40;98835.00;;;;5005460;28;20551;-82
2021/01/21 08:58:18;;;;;;;7.38;1.00;;;;;11.40;98844.00;;;;4995265;28;20225;-81
2021/01/21 09:01:06;;;;;;;5.70;1.00;;;;;11.30;98848.00;;;;5008229;28;20729;-83
2021/01/21 09:03:40;;;;;;;4.07;0.50;;;;;11.40;98844.00;;;;4990877;28;20283;-82
2021/01/21 09:06:08;;;;;;;2.92;1.08;;;;;11.50;98866.00;;;;5004578;28;20192;-83
2021/01/21 09:08:50;;;;;;;4.32;0.82;;;;;11.40;98850.00;;;;4996474;28;20205;-82
2021/01/21 09:11:28;;;;;;;4.63;0.70;;;;;11.40;98856.00;;;;5007915;28;20258;-82
2021/01/21 09:13:55;;;;;;;5.95;0.95;;;;;11.50;98859.00;;;;4997242;28;20198;-83
2021/01/21 09:16:40;;;;;;;5.40;0.95;;;;;11.50;98867.00;;;;5006700;28;20852;-82
2021/01/21 09:19:07;;;;;;;3.13;0.40;;;;;11.60;98854.00;;;;5006215;28;20235;-82
2021/01/21 09:21:34;;;;;;;5.07;1.15;;;;;11.70;98869.00;;;;5007712;28;20208;-82
2021/01/21 09:24:10;;;;;;;1.85;0.63;;;;;11.60;98856.00;;;;5000658;28;20193;-82
2021/01/21 09:26:38;;;;;;;2.90;1.23;;;;;11.70;98871.00;;;;4998529;28;20295;-83
2021/01/21 09:29:05;;;;;;;5.38;0.73;;;;;11.80;98870.00;;;;5008172;28;20216;-82
2021/01/21 09:31:32;;;;;;;9.43;1.10;;;;;11.80;98875.00;;;;5007922;28;20621;-82
2021/01/21 09:33:59;;;;;;;4.95;1.50;;;;;11.80;98870.00;;;;5010077;28;20254;-82
2021/01/21 09:36:27;;;;;;;4.47;0.52;;;;;11.90;98859.00;;;;5011671;28;20257;-81
2021/01/21 09:38:55;;;;;;;3.80;0.45;;;;;11.90;98875.00;;;;5001680;28;20826;-82
2021/01/21 09:41:22;;;;;;;2.42;0.43;;;;;12.00;98869.00;;;;4992107;28;20579;-81
2021/01/21 09:43:50;;;;;;;1.40;0.57;;;;;12.00;98881.00;;;;5010572;28;20684;-82
2021/01/21 09:46:17;;;;;;;15.48;1.27;;;;;12.00;98888.00;;;;5011882;28;20259;-83
2021/01/21 09:48:44;;;;;;;3.15;0.68;;;;;12.10;98883.00;;;;5003573;28;20566;-82
2021/01/21 09:51:10;;;;;;;3.80;0.88;;;;;12.10;98891.00;;;;4993430;28;20213;-83
2021/01/21 09:53:37;;;;;;;1.30;0.73;;;;;12.20;98885.00;;;;5004152;28;20205;-82
2021/01/21 09:56:04;;;;;;;3.00;0.63;;;;;12.30;98880.00;;;;5011033;28;20663;-82
2021/01/21 09:58:31;;;;;;;7.03;0.88;;;;;12.40;98892.00;;;;5011349;28;20220;-83
2021/01/21 10:00:58;;;;;;;3.55;0.65;;;;;12.50;98895.00;;;;5011056;28;20259;-82
2021/01/21 10:03:25;;;;;;;1.52;0.50;;;;;12.60;98907.00;;;;5011949;28;20216;-83
2021/01/21 10:05:52;;;;;;;3.67;0.80;;;;;12.60;98901.00;;;;4996476;28;20264;-83
2021/01/21 10:08:19;;;;;;;3.30;0.55;;;;;12.70;98897.00;;;;4993530;28;20672;-83
2021/01/21 10:10:46;;;;;;;1.83;0.80;;;;;12.80;98905.00;;;;5006216;28;20197;-84
2021/01/21 10:13:13;;;;;;;4.28;0.90;;;;;12.80;98896.00;;;;5009992;28;20224;-83
2021/01/21 10:15:40;;;;;;;2.08;0.70;;;;;12.90;98883.00;;;;5004833;28;20580;-83
2021/01/21 10:18:07;;;;;;;7.38;0.77;;;;;12.90;98880.00;;;;4997737;28;20216;-83
2021/01/21 10:20:34;;;;;;;3.00;1.13;;;;;13.00;98887.00;;;;4997938;28;20201;-83
2021/01/21 10:23:01;;;;;;;0.95;0.40;;;;;13.00;98868.00;;;;5002302;28;20192;-83
2021/01/21 10:25:27;;;;;;;4.63;0.70;;;;;13.00;98868.00;;;;5006869;28;20651;-84
2021/01/21 10:27:54;;;;;;;2.08;0.55;;;;;13.10;98873.00;;;;4991345;28;20201;-83
2021/01/21 10:30:22;;;;;;;5.03;0.90;;;;;13.10;98867.00;;;;5000798;28;20192;-83
2021/01/21 10:32:48;;;;;;;4.30;0.60;;;;;13.10;98876.00;;;;5001158;28;20644;-83
2021/01/21 10:35:16;;;;;;;3.50;0.70;;;;;13.10;98875.00;;;;5005632;28;20208;-84
2021/01/21 10:37:43;;;;;;;1.60;0.70;;;;;13.20;98872.00;;;;5006957;28;20197;-83
2021/01/21 10:40:10;;;;;;;2.45;0.60;;;;;13.20;98879.00;;;;5003006;28;20224;-83
2021/01/21 10:42:37;;;;;;;2.20;0.30;;;;;13.20;98878.00;;;;5011385;28;20747;-82
2021/01/21 10:45:05;;;;;;;1.23;0.50;;;;;13.20;98885.00;;;;5007619;28;20201;-82
2021/01/21 10:47:32;;;;;;;3.83;0.73;;;;;13.20;98887.00;;;;5006723;28;20232;-83
2021/01/21 10:49:59;;;;;;;4.10;1.05;;;;;13.20;98891.00;;;;5010759;28;20446;-83
2021/01/21 10:52:26;;;;;;;2.85;0.80;;;;;13.20;98883.00;;;;5006312;28;20227;-84
2021/01/21 10:54:53;;;;;;;4.32;0.90;;;;;13.20;98901.00;;;;5009684;28;20643;-84
2021/01/21 10:57:19;;;;;;;5.53;0.80;;;;;13.20;98899.00;;;;5004178;28;20190;-83
2021/01/21 10:59:46;;;;;;;3.10;0.85;;;;;13.20;98910.00;;;;4991064;28;20233;-83
2021/01/21 11:02:13;;;;;;;4.22;0.73;;;;;13.20;98906.00;;;;4996592;28;20190;-83
2021/01/21 11:04:40;;;;;;;4.22;1.33;;;;;13.30;98908.00;;;;5006996;28;20220;-83
2021/01/21 11:07:06;;;;;;;4.50;0.60;;;;;13.30;98897.00;;;;5004834;28;20655;-83
2021/01/21 11:09:35;;;;;;;2.60;0.82;;;;;13.30;98905.00;;;;5005817;28;20200;-83
2021/01/21 11:12:04;;;;;;;2.33;0.80;;;;;13.30;98901.00;;;;5010120;28;20276;-83
2021/01/21 11:14:31;;;;;;;6.03;0.68;;;;;13.40;98896.00;;;;5010224;28;20247;-83
2021/01/21 11:16:58;;;;;;;3.63;0.93;;;;;13.40;98892.00;;;;5007743;28;20287;-80
2021/01/21 11:19:24;;;;;;;3.22;0.95;;;;;13.40;98898.00;;;;5005766;28;20220;-85
2021/01/21 11:21:52;;;;;;;4.82;0.70;;;;;13.50;98895.00;;;;5010167;28;20201;-85
2021/01/21 11:24:19;;;;;;;1.60;0.70;;;;;13.50;98897.00;;;;5007320;28;20198;-84
2021/01/21 11:26:47;;;;;;;1.98;0.50;;;;;13.50;98890.00;;;;5011075;28;20201;-84
2021/01/21 11:29:14;;;;;;;4.18;0.93;;;;;13.60;98888.00;;;;5009952;28;20216;-86
2021/01/21 11:31:40;;;;;;;2.60;0.73;;;;;13.60;98891.00;;;;5004623;28;20208;-85
2021/01/21 11:34:07;;;;;;;4.65;0.57;;;;;13.60;98885.00;;;;5000186;28;20200;-86
2021/01/21 11:36:34;;;;;;;1.58;0.60;;;;;13.60;98883.00;;;;5010081;28;20208;-85
2021/01/21 11:39:01;;;;;;;2.50;0.65;;;;;13.70;98886.00;;;;5009517;28;20247;-85
2021/01/21 11:41:28;;;;;;;2.25;0.70;;;;;13.70;98902.00;;;;5009700;28;20577;-85
2021/01/21 11:43:55;;;;;;;2.97;0.60;;;;;13.70;98890.00;;;;5009583;28;20201;-86
2021/01/21 11:46:22;;;;;;;1.48;0.50;;;;;13.80;98896.00;;;;5009987;28;20216;-84
2021/01/21 11:48:50;;;;;;;2.72;1.05;;;;;13.90;98883.00;;;;5009884;28;20201;-83
2021/01/21 11:51:18;;;;;;;2.53;0.88;;;;;13.90;98886.00;;;;5009494;28;20205;-84
2021/01/21 11:53:44;;;;;;;4.65;1.70;;;;;13.90;98892.00;;;;5006318;28;20235;-83
2021/01/21 11:56:11;;;;;;;4.78;1.33;;;;;14.00;98902.00;;;;5008510;28;20189;-83
2021/01/21 11:58:38;;;;;;;4.03;1.13;;;;;14.10;98881.00;;;;5008656;28;20212;-84
2021/01/21 12:01:06;;;;;;;1.77;0.85;;;;;14.10;98887.00;;;;5009481;28;20576;-84
2021/01/21 12:03:33;;;;;;;3.47;0.70;;;;;14.20;98885.00;;;;5009097;28;20201;-84
2021/01/21 12:06:01;;;;;;;4.10;0.85;;;;;14.30;98876.00;;;;5009173;28;20205;-84
2021/01/21 12:08:28;;;;;;;1.60;1.10;;;;;14.30;98885.00;;;;5009674;28;20205;-84
2021/01/21 12:10:55;;;;;;;1.33;0.80;;;;;14.40;98880.00;;;;5008180;28;20571;-83
2021/01/21 12:13:22;;;;;;;2.58;1.00;;;;;14.40;98891.00;;;;5009402;28;20225;-85
2021/01/21 12:15:48;;;;;;;2.17;0.82;;;;;14.40;98887.00;;;;5009115;28;20586;-85
2021/01/21 12:18:16;;;;;;;2.20;1.00;;;;;14.40;98890.00;;;;5008687;28;20789;-86
2021/01/21 12:20:43;;;;;;;2.10;0.73;;;;;14.50;98886.00;;;;5008814;28;20193;-85
2021/01/21 12:23:10;;;;;;;1.60;0.57;;;;;14.50;98877.00;;;;5009630;28;20880;-84
2021/01/21 12:25:36;;;;;;;3.17;0.90;;;;;14.50;98883.00;;;;5008396;28;20205;-83
2021/01/21 12:28:03;;;;;;;2.58;0.60;;;;;14.50;98875.00;;;;5007119;28;20276;-85
2021/01/21 12:30:30;;;;;;;3.45;0.60;;;;;14.50;98873.00;;;;4989764;28;20206;-86
2021/01/21 12:32:57;;;;;;;2.05;0.77;;;;;14.50;98870.00;;;;4989181;28;20209;-84
2021/01/21 12:35:24;;;;;;;4.00;0.88;;;;;14.40;98872.00;;;;4991736;28;20200;-87
2021/01/21 12:37:51;;;;;;;4.07;1.02;;;;;14.40;98872.00;;;;5008787;28;20216;-85
2021/01/21 12:40:18;;;;;;;1.30;0.57;;;;;14.40;98859.00;;;;5008531;28;20665;-85
2021/01/21 12:42:45;;;;;;;1.10;0.60;;;;;14.50;98861.00;;;;5009013;28;20196;-83
2021/01/21 12:45:12;;;;;;;0.88;0.60;;;;;14.40;98854.00;;;;5004756;28;20214;-85
2021/01/21 12:47:39;;;;;;;3.70;1.27;;;;;14.40;98860.00;;;;4989515;28;20711;-84
2021/01/21 12:50:07;;;;;;;1.77;0.70;;;;;14.40;98873.00;;;;4988850;28;20260;-84